Terminal Aerodrome Forecast
Issued by NWS

Home | Current Version | Previous Version | Text Only | Print | Product List | Glossary On
Versions: 1 2 3 4 5 6 7 8 9 10 11 12 13 14 15 16 17 18 19 20
000
FTUS46 KLOX 222340
TAFSBA
TAF
KSBA 222340Z 2300/2324 26009KT P6SM SKC
     FM230300 14004KT P6SM SKC
     FM230900 10005KT 4SM BR OVC005
     FM231200 11004KT 1/2SM FG OVC002
     FM231600 16005KT 4SM BR OVC004
     FM231800 17007KT 5SM BR OVC007
     FM232000 23007KT P6SM SCT010=

USA.gov is the U.S. government's official web portal to all federal, state and local government web resources and services.